sensor_id;sensor_type;location;lat;lon;timestamp;P1;durP1;ratioP1;P2;durP2;ratioP2
23404;SDS011;11875;49.356;2.718;2023-04-19T00:00:02;10.40;;;7.30;;
23404;SDS011;11875;49.356;2.718;2023-04-19T00:02:32;9.43;;;7.45;;
23404;SDS011;11875;49.356;2.718;2023-04-19T00:04:59;9.88;;;7.32;;
23404;SDS011;11875;49.356;2.718;2023-04-19T00:07:24;9.40;;;7.60;;
23404;SDS011;11875;49.356;2.718;2023-04-19T00:09:50;9.98;;;7.63;;
23404;SDS011;11875;49.356;2.718;2023-04-19T00:12:15;10.77;;;7.78;;
23404;SDS011;11875;49.356;2.718;2023-04-19T00:14:41;12.95;;;7.95;;
23404;SDS011;11875;49.356;2.718;2023-04-19T00:17:06;9.05;;;7.28;;
23404;SDS011;11875;49.356;2.718;2023-04-19T00:19:32;10.25;;;8.23;;
23404;SDS011;11875;49.356;2.718;2023-04-19T00:21:58;10.52;;;7.90;;
23404;SDS011;11875;49.356;2.718;2023-04-19T00:24:23;9.57;;;7.55;;
23404;SDS011;11875;49.356;2.718;2023-04-19T00:26:49;10.00;;;7.68;;
23404;SDS011;11875;49.356;2.718;2023-04-19T00:29:15;9.52;;;7.78;;
23404;SDS011;11875;49.356;2.718;2023-04-19T00:31:40;9.18;;;7.63;;
23404;SDS011;11875;49.356;2.718;2023-04-19T00:34:06;9.68;;;7.60;;
23404;SDS011;11875;49.356;2.718;2023-04-19T00:36:32;13.05;;;9.02;;
23404;SDS011;11875;49.356;2.718;2023-04-19T00:38:57;10.68;;;8.15;;
23404;SDS011;11875;49.356;2.718;2023-04-19T00:41:23;11.88;;;9.13;;
23404;SDS011;11875;49.356;2.718;2023-04-19T00:43:48;12.43;;;8.38;;
23404;SDS011;11875;49.356;2.718;2023-04-19T00:46:14;12.45;;;8.73;;
23404;SDS011;11875;49.356;2.718;2023-04-19T00:48:40;10.10;;;7.95;;
23404;SDS011;11875;49.356;2.718;2023-04-19T00:51:06;12.30;;;8.65;;
23404;SDS011;11875;49.356;2.718;2023-04-19T00:53:34;12.10;;;8.60;;
23404;SDS011;11875;49.356;2.718;2023-04-19T00:56:00;15.02;;;9.25;;
23404;SDS011;11875;49.356;2.718;2023-04-19T00:58:28;10.93;;;8.10;;
23404;SDS011;11875;49.356;2.718;2023-04-19T01:00:55;13.15;;;8.82;;
23404;SDS011;11875;49.356;2.718;2023-04-19T01:03:21;11.15;;;8.65;;
23404;SDS011;11875;49.356;2.718;2023-04-19T01:05:47;11.15;;;8.50;;
23404;SDS011;11875;49.356;2.718;2023-04-19T01:08:13;14.27;;;9.18;;
23404;SDS011;11875;49.356;2.718;2023-04-19T01:10:39;10.20;;;8.27;;
23404;SDS011;11875;49.356;2.718;2023-04-19T01:13:04;16.15;;;9.38;;
23404;SDS011;11875;49.356;2.718;2023-04-19T01:15:30;12.68;;;8.73;;
23404;SDS011;11875;49.356;2.718;2023-04-19T01:17:56;11.10;;;8.57;;
23404;SDS011;11875;49.356;2.718;2023-04-19T01:20:21;11.85;;;8.55;;
23404;SDS011;11875;49.356;2.718;2023-04-19T01:22:47;10.80;;;8.43;;
23404;SDS011;11875;49.356;2.718;2023-04-19T01:25:12;12.18;;;8.25;;
23404;SDS011;11875;49.356;2.718;2023-04-19T01:27:38;16.17;;;8.73;;
23404;SDS011;11875;49.356;2.718;2023-04-19T01:30:04;12.90;;;8.32;;
23404;SDS011;11875;49.356;2.718;2023-04-19T01:32:30;9.95;;;8.07;;
23404;SDS011;11875;49.356;2.718;2023-04-19T01:34:56;11.25;;;8.57;;
23404;SDS011;11875;49.356;2.718;2023-04-19T01:37:22;14.23;;;8.45;;
23404;SDS011;11875;49.356;2.718;2023-04-19T01:39:47;11.00;;;8.30;;
23404;SDS011;11875;49.356;2.718;2023-04-19T01:42:13;13.38;;;9.27;;
23404;SDS011;11875;49.356;2.718;2023-04-19T01:44:38;11.43;;;8.68;;
23404;SDS011;11875;49.356;2.718;2023-04-19T01:47:04;13.32;;;8.30;;
23404;SDS011;11875;49.356;2.718;2023-04-19T01:49:30;10.20;;;8.25;;
23404;SDS011;11875;49.356;2.718;2023-04-19T01:51:55;10.95;;;8.88;;
23404;SDS011;11875;49.356;2.718;2023-04-19T01:54:21;15.60;;;9.13;;
23404;SDS011;11875;49.356;2.718;2023-04-19T01:56:46;10.90;;;8.60;;
23404;SDS011;11875;49.356;2.718;2023-04-19T01:59:12;12.07;;;9.20;;
23404;SDS011;11875;49.356;2.718;2023-04-19T02:01:37;12.70;;;8.90;;
23404;SDS011;11875;49.356;2.718;2023-04-19T02:04:03;15.65;;;10.73;;
23404;SDS011;11875;49.356;2.718;2023-04-19T02:06:29;13.52;;;8.45;;
23404;SDS011;11875;49.356;2.718;2023-04-19T02:08:55;12.43;;;8.82;;
23404;SDS011;11875;49.356;2.718;2023-04-19T02:11:21;10.73;;;8.57;;
23404;SDS011;11875;49.356;2.718;2023-04-19T02:13:46;12.10;;;8.88;;
23404;SDS011;11875;49.356;2.718;2023-04-19T02:16:12;11.18;;;8.05;;
23404;SDS011;11875;49.356;2.718;2023-04-19T02:18:38;13.27;;;9.25;;
23404;SDS011;11875;49.356;2.718;2023-04-19T02:21:04;12.07;;;9.00;;
23404;SDS011;11875;49.356;2.718;2023-04-19T02:23:31;10.75;;;8.27;;
23404;SDS011;11875;49.356;2.718;2023-04-19T02:25:56;11.57;;;8.50;;
23404;SDS011;11875;49.356;2.718;2023-04-19T02:28:22;11.55;;;8.52;;
23404;SDS011;11875;49.356;2.718;2023-04-19T02:30:48;11.30;;;8.60;;
23404;SDS011;11875;49.356;2.718;2023-04-19T02:33:13;12.70;;;8.32;;
23404;SDS011;11875;49.356;2.718;2023-04-19T02:35:39;9.57;;;8.30;;
23404;SDS011;11875;49.356;2.718;2023-04-19T02:38:05;12.98;;;8.68;;
23404;SDS011;11875;49.356;2.718;2023-04-19T02:40:31;11.63;;;8.60;;
23404;SDS011;11875;49.356;2.718;2023-04-19T02:42:56;12.38;;;8.82;;
23404;SDS011;11875;49.356;2.718;2023-04-19T02:45:22;14.00;;;8.40;;
23404;SDS011;11875;49.356;2.718;2023-04-19T02:47:47;12.45;;;8.93;;
23404;SDS011;11875;49.356;2.718;2023-04-19T02:50:14;13.65;;;9.27;;
23404;SDS011;11875;49.356;2.718;2023-04-19T02:52:40;10.77;;;8.88;;
23404;SDS011;11875;49.356;2.718;2023-04-19T02:55:06;11.05;;;8.88;;
23404;SDS011;11875;49.356;2.718;2023-04-19T02:57:31;13.45;;;8.65;;
23404;SDS011;11875;49.356;2.718;2023-04-19T02:59:57;12.73;;;8.77;;
23404;SDS011;11875;49.356;2.718;2023-04-19T03:02:23;10.77;;;8.33;;
23404;SDS011;11875;49.356;2.718;2023-04-19T03:04:49;10.85;;;8.82;;
23404;SDS011;11875;49.356;2.718;2023-04-19T03:07:15;12.85;;;9.38;;
23404;SDS011;11875;49.356;2.718;2023-04-19T03:09:41;11.73;;;9.20;;
23404;SDS011;11875;49.356;2.718;2023-04-19T03:12:06;11.53;;;8.87;;
23404;SDS011;11875;49.356;2.718;2023-04-19T03:14:32;11.38;;;9.10;;
23404;SDS011;11875;49.356;2.718;2023-04-19T03:16:58;13.30;;;9.23;;
23404;SDS011;11875;49.356;2.718;2023-04-19T03:19:24;11.30;;;8.90;;
23404;SDS011;11875;49.356;2.718;2023-04-19T03:21:50;11.13;;;8.50;;
23404;SDS011;11875;49.356;2.718;2023-04-19T03:24:17;11.52;;;9.25;;
23404;SDS011;11875;49.356;2.718;2023-04-19T03:26:43;12.82;;;9.23;;
23404;SDS011;11875;49.356;2.718;2023-04-19T03:29:08;12.47;;;8.77;;
23404;SDS011;11875;49.356;2.718;2023-04-19T03:31:34;12.27;;;9.43;;
23404;SDS011;11875;49.356;2.718;2023-04-19T03:34:00;12.63;;;9.23;;
23404;SDS011;11875;49.356;2.718;2023-04-19T03:36:26;13.00;;;10.03;;
23404;SDS011;11875;49.356;2.718;2023-04-19T03:38:51;12.18;;;9.07;;
23404;SDS011;11875;49.356;2.718;2023-04-19T03:41:24;12.33;;;8.90;;
23404;SDS011;11875;49.356;2.718;2023-04-19T03:43:50;13.35;;;9.32;;
23404;SDS011;11875;49.356;2.718;2023-04-19T03:46:16;12.77;;;9.27;;
23404;SDS011;11875;49.356;2.718;2023-04-19T03:48:42;13.03;;;9.17;;
23404;SDS011;11875;49.356;2.718;2023-04-19T03:51:07;16.37;;;8.70;;
23404;SDS011;11875;49.356;2.718;2023-04-19T03:53:34;12.67;;;8.30;;
23404;SDS011;11875;49.356;2.718;2023-04-19T03:56:00;12.03;;;8.77;;
23404;SDS011;11875;49.356;2.718;2023-04-19T03:58:25;12.33;;;8.67;;
23404;SDS011;11875;49.356;2.718;2023-04-19T04:00:51;11.27;;;8.67;;
23404;SDS011;11875;49.356;2.718;2023-04-19T04:03:17;14.73;;;8.80;;
23404;SDS011;11875;49.356;2.718;2023-04-19T04:05:43;12.50;;;9.07;;
23404;SDS011;11875;49.356;2.718;2023-04-19T04:08:09;12.10;;;9.07;;
23404;SDS011;11875;49.356;2.718;2023-04-19T04:10:34;11.30;;;8.43;;
23404;SDS011;11875;49.356;2.718;2023-04-19T04:13:00;13.27;;;9.17;;
23404;SDS011;11875;49.356;2.718;2023-04-19T04:15:25;12.70;;;9.07;;
23404;SDS011;11875;49.356;2.718;2023-04-19T04:17:51;12.20;;;9.30;;
23404;SDS011;11875;49.356;2.718;2023-04-19T04:20:16;11.93;;;9.23;;
23404;SDS011;11875;49.356;2.718;2023-04-19T04:22:42;12.40;;;9.87;;
23404;SDS011;11875;49.356;2.718;2023-04-19T04:25:10;11.73;;;9.10;;
23404;SDS011;11875;49.356;2.718;2023-04-19T04:27:36;16.87;;;9.27;;
23404;SDS011;11875;49.356;2.718;2023-04-19T04:30:03;14.23;;;9.00;;
23404;SDS011;11875;49.356;2.718;2023-04-19T04:32:30;14.50;;;10.13;;
23404;SDS011;11875;49.356;2.718;2023-04-19T04:35:00;14.90;;;10.20;;
23404;SDS011;11875;49.356;2.718;2023-04-19T04:37:26;14.97;;;9.17;;
23404;SDS011;11875;49.356;2.718;2023-04-19T04:39:52;10.97;;;8.93;;
23404;SDS011;11875;49.356;2.718;2023-04-19T04:42:17;11.47;;;8.87;;
23404;SDS011;11875;49.356;2.718;2023-04-19T04:44:45;13.87;;;8.93;;
23404;SDS011;11875;49.356;2.718;2023-04-19T04:47:14;11.83;;;9.27;;
23404;SDS011;11875;49.356;2.718;2023-04-19T04:49:39;13.37;;;9.20;;
23404;SDS011;11875;49.356;2.718;2023-04-19T04:52:05;13.90;;;8.83;;
23404;SDS011;11875;49.356;2.718;2023-04-19T04:54:32;12.57;;;9.07;;
23404;SDS011;11875;49.356;2.718;2023-04-19T04:56:58;13.27;;;8.97;;
23404;SDS011;11875;49.356;2.718;2023-04-19T04:59:24;16.10;;;9.73;;
23404;SDS011;11875;49.356;2.718;2023-04-19T05:01:51;14.87;;;9.43;;
23404;SDS011;11875;49.356;2.718;2023-04-19T05:04:17;12.33;;;9.10;;
23404;SDS011;11875;49.356;2.718;2023-04-19T05:06:43;12.80;;;8.97;;
23404;SDS011;11875;49.356;2.718;2023-04-19T05:09:09;13.20;;;9.00;;
23404;SDS011;11875;49.356;2.718;2023-04-19T05:11:35;12.93;;;9.17;;
23404;SDS011;11875;49.356;2.718;2023-04-19T05:14:01;13.00;;;9.50;;
23404;SDS011;11875;49.356;2.718;2023-04-19T05:16:27;16.03;;;9.57;;
23404;SDS011;11875;49.356;2.718;2023-04-19T05:18:53;14.33;;;9.63;;
23404;SDS011;11875;49.356;2.718;2023-04-19T05:21:19;13.27;;;9.80;;
23404;SDS011;11875;49.356;2.718;2023-04-19T05:23:45;16.47;;;9.77;;
23404;SDS011;11875;49.356;2.718;2023-04-19T05:26:11;13.87;;;9.63;;
23404;SDS011;11875;49.356;2.718;2023-04-19T05:28:38;13.57;;;8.97;;
23404;SDS011;11875;49.356;2.718;2023-04-19T05:31:04;15.70;;;11.03;;
23404;SDS011;11875;49.356;2.718;2023-04-19T05:33:30;13.77;;;9.53;;
23404;SDS011;11875;49.356;2.718;2023-04-19T05:35:56;17.70;;;9.97;;
23404;SDS011;11875;49.356;2.718;2023-04-19T05:38:21;14.40;;;9.07;;
23404;SDS011;11875;49.356;2.718;2023-04-19T05:40:47;14.60;;;9.27;;
23404;SDS011;11875;49.356;2.718;2023-04-19T05:43:13;11.27;;;8.73;;
23404;SDS011;11875;49.356;2.718;2023-04-19T05:45:38;14.07;;;9.80;;
23404;SDS011;11875;49.356;2.718;2023-04-19T05:48:04;17.03;;;9.37;;
23404;SDS011;11875;49.356;2.718;2023-04-19T05:50:30;18.90;;;10.03;;
23404;SDS011;11875;49.356;2.718;2023-04-19T05:52:56;12.87;;;9.33;;
23404;SDS011;11875;49.356;2.718;2023-04-19T05:55:21;14.27;;;9.40;;
23404;SDS011;11875;49.356;2.718;2023-04-19T05:57:47;16.80;;;9.97;;
23404;SDS011;11875;49.356;2.718;2023-04-19T06:00:13;12.57;;;8.90;;
23404;SDS011;11875;49.356;2.718;2023-04-19T06:02:40;13.33;;;9.57;;
23404;SDS011;11875;49.356;2.718;2023-04-19T06:05:05;19.80;;;8.93;;
23404;SDS011;11875;49.356;2.718;2023-04-19T06:07:31;14.53;;;9.63;;
23404;SDS011;11875;49.356;2.718;2023-04-19T06:09:57;12.77;;;9.10;;
23404;SDS011;11875;49.356;2.718;2023-04-19T06:12:22;15.17;;;9.83;;
23404;SDS011;11875;49.356;2.718;2023-04-19T06:14:48;14.97;;;9.53;;
23404;SDS011;11875;49.356;2.718;2023-04-19T06:17:13;12.87;;;9.33;;
23404;SDS011;11875;49.356;2.718;2023-04-19T06:19:40;14.67;;;9.77;;
23404;SDS011;11875;49.356;2.718;2023-04-19T06:22:06;12.27;;;9.00;;
23404;SDS011;11875;49.356;2.718;2023-04-19T06:24:32;13.50;;;9.33;;
23404;SDS011;11875;49.356;2.718;2023-04-19T06:26:58;14.10;;;9.70;;
23404;SDS011;11875;49.356;2.718;2023-04-19T06:29:23;14.00;;;9.40;;
23404;SDS011;11875;49.356;2.718;2023-04-19T06:31:49;12.67;;;8.83;;
23404;SDS011;11875;49.356;2.718;2023-04-19T06:34:15;13.00;;;9.27;;
23404;SDS011;11875;49.356;2.718;2023-04-19T06:36:41;12.47;;;9.00;;
23404;SDS011;11875;49.356;2.718;2023-04-19T06:39:06;15.07;;;9.07;;
23404;SDS011;11875;49.356;2.718;2023-04-19T06:41:32;13.47;;;8.50;;
23404;SDS011;11875;49.356;2.718;2023-04-19T06:43:57;14.17;;;9.00;;
23404;SDS011;11875;49.356;2.718;2023-04-19T06:46:23;12.30;;;9.23;;
23404;SDS011;11875;49.356;2.718;2023-04-19T06:48:49;11.63;;;7.97;;
23404;SDS011;11875;49.356;2.718;2023-04-19T06:51:14;14.00;;;9.23;;
23404;SDS011;11875;49.356;2.718;2023-04-19T06:53:40;13.27;;;8.70;;
23404;SDS011;11875;49.356;2.718;2023-04-19T06:56:06;13.87;;;9.10;;
23404;SDS011;11875;49.356;2.718;2023-04-19T06:58:31;13.17;;;9.03;;
23404;SDS011;11875;49.356;2.718;2023-04-19T07:00:57;13.80;;;9.07;;
23404;SDS011;11875;49.356;2.718;2023-04-19T07:03:24;13.07;;;8.73;;
23404;SDS011;11875;49.356;2.718;2023-04-19T07:05:50;12.97;;;8.40;;
23404;SDS011;11875;49.356;2.718;2023-04-19T07:08:20;27.80;;;8.63;;
23404;SDS011;11875;49.356;2.718;2023-04-19T07:10:46;14.53;;;8.40;;
23404;SDS011;11875;49.356;2.718;2023-04-19T07:13:11;13.83;;;9.10;;
23404;SDS011;11875;49.356;2.718;2023-04-19T07:15:37;9.10;;;7.17;;
23404;SDS011;11875;49.356;2.718;2023-04-19T07:18:03;11.55;;;7.82;;
23404;SDS011;11875;49.356;2.718;2023-04-19T07:20:28;12.47;;;8.20;;
23404;SDS011;11875;49.356;2.718;2023-04-19T07:22:55;13.20;;;7.90;;
23404;SDS011;11875;49.356;2.718;2023-04-19T07:25:24;12.57;;;8.10;;
23404;SDS011;11875;49.356;2.718;2023-04-19T07:27:51;14.07;;;8.53;;
23404;SDS011;11875;49.356;2.718;2023-04-19T07:30:18;10.35;;;8.23;;
23404;SDS011;11875;49.356;2.718;2023-04-19T07:32:44;10.40;;;7.45;;
23404;SDS011;11875;49.356;2.718;2023-04-19T07:35:10;12.07;;;8.07;;
23404;SDS011;11875;49.356;2.718;2023-04-19T07:37:36;13.40;;;8.55;;
23404;SDS011;11875;49.356;2.718;2023-04-19T07:40:01;11.57;;;7.97;;
23404;SDS011;11875;49.356;2.718;2023-04-19T07:42:28;11.25;;;8.23;;
23404;SDS011;11875;49.356;2.718;2023-04-19T07:44:54;10.85;;;7.72;;
23404;SDS011;11875;49.356;2.718;2023-04-19T07:47:20;10.30;;;7.50;;
23404;SDS011;11875;49.356;2.718;2023-04-19T07:49:46;10.52;;;7.90;;
23404;SDS011;11875;49.356;2.718;2023-04-19T07:52:15;10.50;;;7.43;;
23404;SDS011;11875;49.356;2.718;2023-04-19T07:54:42;11.18;;;7.85;;
23404;SDS011;11875;49.356;2.718;2023-04-19T07:57:08;9.02;;;7.15;;
23404;SDS011;11875;49.356;2.718;2023-04-19T07:59:33;10.10;;;7.57;;
23404;SDS011;11875;49.356;2.718;2023-04-19T08:01:59;9.75;;;7.32;;
23404;SDS011;11875;49.356;2.718;2023-04-19T08:04:25;18.88;;;8.57;;
23404;SDS011;11875;49.356;2.718;2023-04-19T08:06:50;12.88;;;7.50;;
23404;SDS011;11875;49.356;2.718;2023-04-19T08:09:17;9.32;;;7.13;;
23404;SDS011;11875;49.356;2.718;2023-04-19T08:11:42;9.38;;;7.75;;
23404;SDS011;11875;49.356;2.718;2023-04-19T08:14:08;9.38;;;7.30;;
23404;SDS011;11875;49.356;2.718;2023-04-19T08:16:34;9.18;;;7.30;;
23404;SDS011;11875;49.356;2.718;2023-04-19T08:19:00;10.25;;;6.60;;
23404;SDS011;11875;49.356;2.718;2023-04-19T08:21:25;8.77;;;7.15;;
23404;SDS011;11875;49.356;2.718;2023-04-19T08:23:51;9.77;;;6.93;;
23404;SDS011;11875;49.356;2.718;2023-04-19T08:26:17;8.68;;;6.90;;
23404;SDS011;11875;49.356;2.718;2023-04-19T08:28:42;11.05;;;6.93;;
23404;SDS011;11875;49.356;2.718;2023-04-19T08:31:08;7.93;;;6.88;;
23404;SDS011;11875;49.356;2.718;2023-04-19T08:33:34;7.95;;;6.43;;
23404;SDS011;11875;49.356;2.718;2023-04-19T08:36:00;7.68;;;6.60;;
23404;SDS011;11875;49.356;2.718;2023-04-19T08:38:26;10.70;;;7.05;;
23404;SDS011;11875;49.356;2.718;2023-04-19T08:40:52;8.13;;;6.78;;
23404;SDS011;11875;49.356;2.718;2023-04-19T08:43:21;12.50;;;7.60;;
23404;SDS011;11875;49.356;2.718;2023-04-19T08:45:50;10.02;;;6.43;;
23404;SDS011;11875;49.356;2.718;2023-04-19T08:48:16;9.70;;;7.13;;
23404;SDS011;11875;49.356;2.718;2023-04-19T08:50:43;9.15;;;7.15;;
23404;SDS011;11875;49.356;2.718;2023-04-19T08:53:12;8.23;;;6.22;;
23404;SDS011;11875;49.356;2.718;2023-04-19T08:55:39;7.75;;;6.10;;
23404;SDS011;11875;49.356;2.718;2023-04-19T08:58:07;9.48;;;6.45;;
23404;SDS011;11875;49.356;2.718;2023-04-19T09:00:34;9.15;;;6.40;;
23404;SDS011;11875;49.356;2.718;2023-04-19T09:03:03;9.65;;;7.28;;
23404;SDS011;11875;49.356;2.718;2023-04-19T09:05:31;7.35;;;6.65;;
23404;SDS011;11875;49.356;2.718;2023-04-19T09:10:56;8.38;;;6.30;;
23404;SDS011;11875;49.356;2.718;2023-04-19T09:13:24;9.13;;;6.85;;
23404;SDS011;11875;49.356;2.718;2023-04-19T09:15:50;8.05;;;6.47;;
23404;SDS011;11875;49.356;2.718;2023-04-19T09:18:18;9.55;;;6.15;;
23404;SDS011;11875;49.356;2.718;2023-04-19T09:20:44;9.57;;;6.68;;
23404;SDS011;11875;49.356;2.718;2023-04-19T09:23:15;11.02;;;6.47;;
23404;SDS011;11875;49.356;2.718;2023-04-19T09:25:55;8.65;;;6.70;;
23404;SDS011;11875;49.356;2.718;2023-04-19T09:28:24;9.18;;;6.13;;
23404;SDS011;11875;49.356;2.718;2023-04-19T09:30:50;9.68;;;6.28;;
23404;SDS011;11875;49.356;2.718;2023-04-19T09:33:32;8.70;;;5.95;;
23404;SDS011;11875;49.356;2.718;2023-04-19T09:35:58;9.07;;;6.35;;
23404;SDS011;11875;49.356;2.718;2023-04-19T09:38:25;7.35;;;6.22;;
23404;SDS011;11875;49.356;2.718;2023-04-19T09:40:51;9.02;;;6.10;;
23404;SDS011;11875;49.356;2.718;2023-04-19T09:43:29;6.60;;;5.50;;
23404;SDS011;11875;49.356;2.718;2023-04-19T09:45:54;7.38;;;5.68;;
23404;SDS011;11875;49.356;2.718;2023-04-19T09:48:21;8.70;;;6.22;;
23404;SDS011;11875;49.356;2.718;2023-04-19T09:50:51;7.70;;;5.70;;
23404;SDS011;11875;49.356;2.718;2023-04-19T09:53:18;9.45;;;6.75;;
23404;SDS011;11875;49.356;2.718;2023-04-19T09:55:45;6.82;;;5.90;;
23404;SDS011;11875;49.356;2.718;2023-04-19T09:58:11;5.88;;;5.18;;
23404;SDS011;11875;49.356;2.718;2023-04-19T10:00:38;8.13;;;5.75;;
23404;SDS011;11875;49.356;2.718;2023-04-19T10:03:06;6.72;;;5.55;;
23404;SDS011;11875;49.356;2.718;2023-04-19T10:05:34;6.10;;;5.18;;
23404;SDS011;11875;49.356;2.718;2023-04-19T10:08:03;6.60;;;5.18;;
23404;SDS011;11875;49.356;2.718;2023-04-19T10:10:31;6.80;;;5.43;;
23404;SDS011;11875;49.356;2.718;2023-04-19T10:12:57;7.10;;;5.15;;
23404;SDS011;11875;49.356;2.718;2023-04-19T10:15:24;6.40;;;5.30;;
23404;SDS011;11875;49.356;2.718;2023-04-19T10:17:51;6.93;;;5.35;;
23404;SDS011;11875;49.356;2.718;2023-04-19T10:20:29;6.97;;;4.97;;
23404;SDS011;11875;49.356;2.718;2023-04-19T10:23:09;5.63;;;4.53;;
23404;SDS011;11875;49.356;2.718;2023-04-19T10:25:36;5.10;;;4.60;;
23404;SDS011;11875;49.356;2.718;2023-04-19T10:28:02;6.10;;;4.57;;
23404;SDS011;11875;49.356;2.718;2023-04-19T10:30:28;6.00;;;5.22;;
23404;SDS011;11875;49.356;2.718;2023-04-19T10:32:55;6.22;;;4.72;;
23404;SDS011;11875;49.356;2.718;2023-04-19T10:35:26;6.85;;;4.35;;
23404;SDS011;11875;49.356;2.718;2023-04-19T10:38:14;5.97;;;3.47;;
23404;SDS011;11875;49.356;2.718;2023-04-19T10:43:28;3.97;;;3.47;;
23404;SDS011;11875;49.356;2.718;2023-04-19T10:46:08;4.53;;;3.90;;
23404;SDS011;11875;49.356;2.718;2023-04-19T10:48:49;4.47;;;3.78;;
23404;SDS011;11875;49.356;2.718;2023-04-19T10:51:18;4.95;;;3.90;;
23404;SDS011;11875;49.356;2.718;2023-04-19T10:53:56;4.70;;;3.88;;
23404;SDS011;11875;49.356;2.718;2023-04-19T11:01:33;3.22;;;2.92;;
23404;SDS011;11875;49.356;2.718;2023-04-19T11:04:01;3.80;;;3.05;;
23404;SDS011;11875;49.356;2.718;2023-04-19T11:06:26;3.80;;;3.00;;
23404;SDS011;11875;49.356;2.718;2023-04-19T11:08:52;4.95;;;2.97;;
23404;SDS011;11875;49.356;2.718;2023-04-19T11:11:18;4.15;;;3.20;;
23404;SDS011;11875;49.356;2.718;2023-04-19T11:13:48;2.85;;;2.50;;
23404;SDS011;11875;49.356;2.718;2023-04-19T11:16:14;2.63;;;2.42;;
23404;SDS011;11875;49.356;2.718;2023-04-19T11:18:40;4.28;;;2.53;;
23404;SDS011;11875;49.356;2.718;2023-04-19T11:21:05;3.35;;;2.75;;
23404;SDS011;11875;49.356;2.718;2023-04-19T11:23:31;4.63;;;3.20;;
23404;SDS011;11875;49.356;2.718;2023-04-19T11:25:57;3.85;;;3.30;;
23404;SDS011;11875;49.356;2.718;2023-04-19T11:28:23;6.18;;;3.40;;
23404;SDS011;11875;49.356;2.718;2023-04-19T11:30:48;3.78;;;3.00;;
23404;SDS011;11875;49.356;2.718;2023-04-19T11:33:14;3.25;;;2.95;;
23404;SDS011;11875;49.356;2.718;2023-04-19T11:35:48;3.88;;;3.08;;
23404;SDS011;11875;49.356;2.718;2023-04-19T11:38:14;3.47;;;3.17;;
23404;SDS011;11875;49.356;2.718;2023-04-19T11:40:40;3.53;;;2.60;;
23404;SDS011;11875;49.356;2.718;2023-04-19T11:43:06;5.07;;;3.60;;
23404;SDS011;11875;49.356;2.718;2023-04-19T11:45:32;6.68;;;2.67;;
23404;SDS011;11875;49.356;2.718;2023-04-19T11:48:00;3.20;;;2.80;;
23404;SDS011;11875;49.356;2.718;2023-04-19T11:53:13;3.60;;;2.80;;
23404;SDS011;11875;49.356;2.718;2023-04-19T11:55:44;4.32;;;2.95;;
23404;SDS011;11875;49.356;2.718;2023-04-19T11:58:27;4.43;;;2.60;;
23404;SDS011;11875;49.356;2.718;2023-04-19T12:03:30;3.55;;;2.53;;
23404;SDS011;11875;49.356;2.718;2023-04-19T12:06:00;3.30;;;3.00;;
23404;SDS011;11875;49.356;2.718;2023-04-19T12:08:35;3.03;;;2.70;;
23404;SDS011;11875;49.356;2.718;2023-04-19T12:11:02;3.67;;;2.97;;
23404;SDS011;11875;49.356;2.718;2023-04-19T12:13:29;3.67;;;2.80;;
23404;SDS011;11875;49.356;2.718;2023-04-19T12:15:55;2.60;;;2.35;;
23404;SDS011;11875;49.356;2.718;2023-04-19T12:18:21;3.08;;;2.60;;
23404;SDS011;11875;49.356;2.718;2023-04-19T12:20:50;5.13;;;3.00;;
23404;SDS011;11875;49.356;2.718;2023-04-19T12:23:17;5.18;;;2.72;;
23404;SDS011;11875;49.356;2.718;2023-04-19T12:25:44;2.95;;;2.60;;
23404;SDS011;11875;49.356;2.718;2023-04-19T12:28:11;3.55;;;2.90;;
23404;SDS011;11875;49.356;2.718;2023-04-19T12:30:37;2.95;;;2.65;;
23404;SDS011;11875;49.356;2.718;2023-04-19T12:33:04;3.10;;;2.80;;
23404;SDS011;11875;49.356;2.718;2023-04-19T12:35:30;2.78;;;2.55;;
23404;SDS011;11875;49.356;2.718;2023-04-19T12:37:57;6.43;;;3.42;;
23404;SDS011;11875;49.356;2.718;2023-04-19T12:40:23;8.50;;;3.33;;
23404;SDS011;11875;49.356;2.718;2023-04-19T12:42:50;3.20;;;2.63;;
23404;SDS011;11875;49.356;2.718;2023-04-19T12:45:17;4.32;;;2.88;;
23404;SDS011;11875;49.356;2.718;2023-04-19T12:47:44;4.03;;;2.92;;
23404;SDS011;11875;49.356;2.718;2023-04-19T12:50:11;4.47;;;2.78;;
23404;SDS011;11875;49.356;2.718;2023-04-19T12:52:37;4.50;;;2.72;;
23404;SDS011;11875;49.356;2.718;2023-04-19T12:55:03;5.30;;;4.80;;
23404;SDS011;11875;49.356;2.718;2023-04-19T12:57:29;6.47;;;2.80;;
23404;SDS011;11875;49.356;2.718;2023-04-19T12:59:55;4.38;;;2.72;;
23404;SDS011;11875;49.356;2.718;2023-04-19T13:02:21;3.45;;;2.83;;
23404;SDS011;11875;49.356;2.718;2023-04-19T13:04:46;3.08;;;2.78;;
23404;SDS011;11875;49.356;2.718;2023-04-19T13:07:12;4.07;;;2.92;;
23404;SDS011;11875;49.356;2.718;2023-04-19T13:09:38;6.97;;;2.90;;
23404;SDS011;11875;49.356;2.718;2023-04-19T13:12:04;5.78;;;2.70;;
23404;SDS011;11875;49.356;2.718;2023-04-19T13:14:30;5.82;;;2.65;;
23404;SDS011;11875;49.356;2.718;2023-04-19T13:16:55;4.13;;;2.97;;
23404;SDS011;11875;49.356;2.718;2023-04-19T13:19:21;3.35;;;2.50;;
23404;SDS011;11875;49.356;2.718;2023-04-19T13:21:47;3.17;;;2.45;;
23404;SDS011;11875;49.356;2.718;2023-04-19T13:24:12;3.15;;;2.47;;
23404;SDS011;11875;49.356;2.718;2023-04-19T13:26:38;3.75;;;2.40;;
23404;SDS011;11875;49.356;2.718;2023-04-19T13:29:04;3.50;;;2.72;;
23404;SDS011;11875;49.356;2.718;2023-04-19T13:31:29;3.03;;;2.67;;
23404;SDS011;11875;49.356;2.718;2023-04-19T13:33:55;2.63;;;2.42;;
23404;SDS011;11875;49.356;2.718;2023-04-19T13:36:21;3.65;;;2.63;;
23404;SDS011;11875;49.356;2.718;2023-04-19T13:38:47;3.10;;;2.50;;
23404;SDS011;11875;49.356;2.718;2023-04-19T13:41:13;2.90;;;2.30;;
23404;SDS011;11875;49.356;2.718;2023-04-19T13:43:38;5.05;;;2.70;;
23404;SDS011;11875;49.356;2.718;2023-04-19T13:46:04;6.60;;;2.70;;
23404;SDS011;11875;49.356;2.718;2023-04-19T13:48:30;5.22;;;2.28;;
23404;SDS011;11875;49.356;2.718;2023-04-19T13:50:56;2.65;;;2.40;;
23404;SDS011;11875;49.356;2.718;2023-04-19T13:53:23;3.70;;;2.60;;
23404;SDS011;11875;49.356;2.718;2023-04-19T13:55:50;2.97;;;2.30;;
23404;SDS011;11875;49.356;2.718;2023-04-19T13:58:16;4.07;;;2.40;;
23404;SDS011;11875;49.356;2.718;2023-04-19T14:00:43;3.10;;;2.47;;
23404;SDS011;11875;49.356;2.718;2023-04-19T14:03:08;3.53;;;2.70;;
23404;SDS011;11875;49.356;2.718;2023-04-19T14:05:34;4.20;;;2.58;;
23404;SDS011;11875;49.356;2.718;2023-04-19T14:08:00;4.90;;;2.70;;
23404;SDS011;11875;49.356;2.718;2023-04-19T14:10:25;6.90;;;3.00;;
23404;SDS011;11875;49.356;2.718;2023-04-19T14:12:51;2.90;;;2.50;;
23404;SDS011;11875;49.356;2.718;2023-04-19T14:15:20;2.65;;;2.17;;
23404;SDS011;11875;49.356;2.718;2023-04-19T14:17:47;3.22;;;2.63;;
23404;SDS011;11875;49.356;2.718;2023-04-19T14:20:13;2.50;;;2.30;;
23404;SDS011;11875;49.356;2.718;2023-04-19T14:22:39;2.90;;;2.60;;
23404;SDS011;11875;49.356;2.718;2023-04-19T14:25:04;2.78;;;2.35;;
23404;SDS011;11875;49.356;2.718;2023-04-19T14:27:31;3.53;;;2.42;;
23404;SDS011;11875;49.356;2.718;2023-04-19T14:29:56;2.60;;;2.25;;
23404;SDS011;11875;49.356;2.718;2023-04-19T14:32:22;4.25;;;2.10;;
23404;SDS011;11875;49.356;2.718;2023-04-19T14:34:48;3.08;;;2.47;;
23404;SDS011;11875;49.356;2.718;2023-04-19T14:37:13;3.22;;;2.53;;
23404;SDS011;11875;49.356;2.718;2023-04-19T14:39:39;3.00;;;2.70;;
23404;SDS011;11875;49.356;2.718;2023-04-19T14:42:05;2.47;;;2.28;;
23404;SDS011;11875;49.356;2.718;2023-04-19T14:44:30;4.20;;;2.40;;
23404;SDS011;11875;49.356;2.718;2023-04-19T14:46:56;4.93;;;2.63;;
23404;SDS011;11875;49.356;2.718;2023-04-19T14:49:22;4.03;;;2.22;;
23404;SDS011;11875;49.356;2.718;2023-04-19T14:51:47;2.50;;;2.30;;